Flight Track Log - Related Links

Times and Time Zones

All times are in EDT time to prevent confusion due to time zone crossing. See the LBQ792 flight status page for this flight to view local times or setup timezone preferences in your user account.

Time Position Orientation Groundspeed Altitude Reporting Facility
EDT Latitude Longitude Course Direction KTS MPH feet Rate Location/Type
Mon 11:40:54 PM 43.0500 -78.9167 160° South 147 169 3,200  Level Buffalo TRACON
Mon 11:41:54 PM 43.0167 -78.9333 200° South 156 180 4,600 1,243 Climbing Buffalo TRACON
Mon 11:42:45 PM 42.9800 -78.9400 188° South 184 212 5,500 1,243 Climbing Cleveland Center
Mon 11:43:45 PM 42.9364 -78.9556 195° South 178 205 6,900 1,400 Climbing Cleveland Center
Mon 11:44:45 PM 42.8886 -78.9653 188° South 165 190 8,300 1,250 Climbing Cleveland Center
Mon 11:45:45 PM 42.8431 -78.9747 189° South 165 190 9,400 1,100 Climbing Cleveland Center
Mon 11:46:45 PM 42.7972 -78.9817 186° South 165 190 10,500 1,100 Climbing Cleveland Center
Mon 11:47:45 PM 42.7517 -78.9997 196° South 165 190 11,600 1,050 Climbing Cleveland Center
Mon 11:48:45 PM 42.7019 -79.0208 197° South 170 196 12,600 1,100 Climbing Cleveland Center
Mon 11:49:45 PM 42.6500 -79.0419 197° South 182 209 13,800 1,150 Climbing Cleveland Center
Mon 11:50:45 PM 42.5961 -79.0631 196° South 193 222 14,900 1,100 Climbing Cleveland Center
Mon 11:51:45 PM 42.5444 -79.0867 199° South 199 229 16,000 1,050 Climbing Cleveland Center
Mon 11:52:45 PM 42.4883 -79.1078 196° South 205 236 17,000 900 Climbing Cleveland Center
Mon 11:53:45 PM 42.4303 -79.1289 195° South 211 243 17,800 850 Climbing Cleveland Center
Mon 11:54:45 PM 42.3742 -79.1556 199° South 211 243 18,700 850 Climbing Cleveland Center
Mon 11:55:45 PM 42.3203 -79.1764 196° South 211 243 19,500 650 Climbing Cleveland Center
Mon 11:56:45 PM 42.2600 -79.1972 194° South 211 243 20,000 250 Climbing Cleveland Center
Mon 11:57:45 PM 42.1981 -79.2239 198° South 221 254 20,000  Level Cleveland Center
Mon 11:58:45 PM 42.1314 -79.2475 195° South 242 278 20,000  Level Cleveland Center
Tue 12:00:00 AM 42.0588 -79.2754 196° South  Level FlightAware Approximate
Tue 12:07:00 AM 41.6523 -79.4302 196° South  Level FlightAware Approximate
Tue 12:08:00 AM 41.5941 -79.4520 194° South  Level FlightAware Approximate
Tue 12:09:00 AM 41.5366 -79.4756 207° Southwest  Level FlightAware Approximate
Tue 12:10:00 AM 41.4812 -79.5067 195° South  Level FlightAware Approximate
Tue 12:11:00 AM 41.4229 -79.5276 195° South  Level FlightAware Approximate
Tue 12:12:00 AM 41.3646 -79.5484 195° South  Level FlightAware Approximate
Tue 12:13:00 AM 41.3063 -79.5692 195° South  Level FlightAware Approximate
Tue 12:14:00 AM 41.2461 -79.5867 192° South  Level FlightAware Approximate
Tue 12:15:00 AM 41.1862 -79.6061 199° South  Level FlightAware Approximate
Tue 12:16:00 AM 41.1279 -79.6321 199° South  Level FlightAware Approximate
Tue 12:17:00 AM 41.0695 -79.6580 199° South  Level FlightAware Approximate
Tue 12:18:00 AM 41.0100 -79.6787 193° South  Level FlightAware Approximate
Tue 12:19:00 AM 40.9500 -79.6967 193° South  Level FlightAware Approximate
Tue 12:20:00 AM 40.8899 -79.7147 193° South  Level FlightAware Approximate
Tue 12:21:00 AM 40.8321 -79.7423 201° Southwest  Level FlightAware Approximate
Tue 12:22:00 AM 40.7733 -79.7663 196° South  Level FlightAware Approximate
Tue 12:23:00 AM 40.7141 -79.7885 196° South  Level FlightAware Approximate
Tue 12:24:00 AM 40.6547 -79.8096 194° South  Level FlightAware Approximate
Tue 12:25:00 AM 40.5950 -79.8295 194° South  Level FlightAware Approximate
Tue 12:26:00 AM 40.5353 -79.8493 194° South  Level FlightAware Approximate
Tue 12:27:00 AM 40.4785 -79.8721 191° South  Level FlightAware Approximate
Tue 12:28:00 AM 40.4187 -79.8906 201° Southwest  Level FlightAware Approximate
Tue 12:29:00 AM 40.3608 -79.9167 180° South  Level FlightAware Approximate
Tue 12:30:00 AM 40.3500 -79.9167 180° South  Level FlightAware Approximate
Tue 12:31:00 AM 40.3544 -79.9302 180° South  Level Estimated
Tue 12:32:00 AM 40.3544 -79.9302 180° South  Level Estimated
Tue 12:33:00 AM 40.3544 -79.9302 180° South  Level Estimated
Tue 12:34:00 AM 40.3544 -79.9302 180° South  Level Estimated

Login

Don't have an account? Register now (free) for customized features, flight alerts, and more!